Time;durP1;ratioP1;P1;durP2;ratioP2;P2;SDS_P1;SDS_P2;PMS_P1;PMS_P2;Temp;Humidity;BMP_temperature;BMP_pressure;BME280_temperature;BME280_humidity;BME280_pressure;Samples;Min_cycle;Max_cycle;Signal;HPM_P1;HPM_P2
2022/10/25 00:00:57;;;;;;;5.43;2.30;;;13.50;99.90;;;;;;5002772;28;20199;-90
2022/10/25 00:03:22;;;;;;;2.97;2.20;;;13.50;99.90;;;;;;5013485;28;20235;-89
2022/10/25 00:05:48;;;;;;;5.10;3.30;;;13.50;99.90;;;;;;4994435;28;20220;-89
2022/10/25 00:08:14;;;;;;;8.87;2.87;;;13.60;99.90;;;;;;4963680;28;20216;-91
2022/10/25 00:10:40;;;;;;;8.83;2.40;;;13.60;99.90;;;;;;4974678;28;20677;-91
2022/10/25 00:13:06;;;;;;;1.93;1.40;;;13.60;99.90;;;;;;5002759;28;20192;-91
2022/10/25 00:15:31;;;;;;;16.60;2.57;;;13.70;99.90;;;;;;4969967;28;20200;-91
2022/10/25 00:17:57;;;;;;;7.07;2.43;;;13.70;99.90;;;;;;4938402;28;20224;-91
2022/10/25 00:20:23;;;;;;;5.23;2.70;;;13.80;99.90;;;;;;4977618;28;20251;-91
2022/10/25 00:22:49;;;;;;;8.77;2.67;;;13.80;99.90;;;;;;4979120;28;20219;-93
2022/10/25 00:25:15;;;;;;;7.50;3.57;;;13.80;99.90;;;;;;4969097;28;20196;-87
2022/10/25 00:27:40;;;;;;;9.73;2.53;;;13.90;99.90;;;;;;4994967;28;20269;-88
2022/10/25 00:30:07;;;;;;;9.70;3.43;;;13.90;99.90;;;;;;4995871;28;20215;-88
2022/10/25 00:32:33;;;;;;;6.43;2.60;;;14.00;99.90;;;;;;4996437;28;20220;-89
2022/10/25 00:34:59;;;;;;;9.57;2.77;;;14.00;99.90;;;;;;4978967;28;20676;-90
2022/10/25 00:37:25;;;;;;;2.97;2.63;;;14.10;99.90;;;;;;4992797;28;20586;-88
2022/10/25 00:39:51;;;;;;;12.30;3.87;;;14.10;99.90;;;;;;5001979;28;20202;-90
2022/10/25 00:42:22;;;;;;;10.20;3.60;;;14.10;99.90;;;;;;4990418;28;20219;-88
2022/10/25 00:44:55;;;;;;;5.53;2.40;;;14.10;99.90;;;;;;4990086;28;20226;-85
2022/10/25 00:47:21;;;;;;;8.67;3.30;;;14.10;99.90;;;;;;4990258;28;20227;-88
2022/10/25 00:50:13;;;;;;;5.33;2.70;;;14.10;99.90;;;;;;4990526;28;20248;-87
2022/10/25 00:52:41;;;;;;;14.87;2.90;;;14.20;99.90;;;;;;5007750;28;20219;-90
2022/10/25 00:55:08;;;;;;;6.83;3.03;;;14.10;99.90;;;;;;4998689;28;20207;-91
2022/10/25 00:57:50;;;;;;;3.80;3.07;;;14.20;99.90;;;;;;4998592;28;20696;-90
2022/10/25 01:00:16;;;;;;;7.10;3.87;;;14.10;99.90;;;;;;4989817;28;20224;-91
2022/10/25 01:02:42;;;;;;;8.13;3.60;;;14.10;99.90;;;;;;4974438;28;20227;-90
2022/10/25 01:05:09;;;;;;;4.90;2.50;;;14.10;99.90;;;;;;4982119;28;20215;-89
2022/10/25 01:07:35;;;;;;;20.50;4.20;;;14.00;99.90;;;;;;4996928;28;20224;-93
2022/10/25 01:10:01;;;;;;;5.53;3.63;;;14.00;99.90;;;;;;4997662;28;20199;-90
2022/10/25 01:12:27;;;;;;;8.67;4.23;;;14.00;99.90;;;;;;5001331;28;20332;-91
2022/10/25 01:14:54;;;;;;;4.83;3.20;;;14.00;99.90;;;;;;4983833;28;20244;-90
2022/10/25 01:17:58;;;;;;;20.97;5.07;;;14.00;99.90;;;;;;4968215;28;20235;-90
2022/10/25 01:20:38;;;;;;;8.33;4.00;;;14.00;99.90;;;;;;4994602;28;20225;-91
2022/10/25 01:23:19;;;;;;;9.47;4.57;;;14.00;99.90;;;;;;4996665;28;20248;-89
2022/10/25 01:26:00;;;;;;;10.77;3.50;;;14.00;99.90;;;;;;4975971;28;20226;-86
2022/10/25 01:28:50;;;;;;;7.37;4.53;;;14.00;99.90;;;;;;4989434;28;20310;-90
2022/10/25 01:31:47;;;;;;;5.33;4.33;;;14.00;99.90;;;;;;4998172;28;20187;-91
2022/10/25 01:34:22;;;;;;;5.40;4.03;;;14.00;99.90;;;;;;4996230;28;20249;-87
2022/10/25 01:37:00;;;;;;;4.40;2.83;;;13.90;99.90;;;;;;4998611;28;20191;-88
2022/10/25 01:39:32;;;;;;;10.87;4.17;;;13.90;99.90;;;;;;4989401;28;20266;-89
2022/10/25 01:42:07;;;;;;;10.20;4.53;;;14.00;99.90;;;;;;4988469;28;20227;-89
2022/10/25 01:44:33;;;;;;;7.07;4.13;;;14.00;99.90;;;;;;4981925;28;20220;-91
2022/10/25 01:47:08;;;;;;;11.77;4.13;;;14.00;99.90;;;;;;4980066;28;21041;-89
2022/10/25 01:49:43;;;;;;;6.17;4.50;;;14.00;99.90;;;;;;4976845;28;20219;-91
2022/10/25 01:52:09;;;;;;;10.93;4.50;;;14.00;99.90;;;;;;4995483;28;20198;-91
2022/10/25 01:54:35;;;;;;;9.83;5.20;;;14.00;99.90;;;;;;4971910;28;20188;-88
2022/10/25 01:57:38;;;;;;;9.17;4.93;;;14.00;99.90;;;;;;4987816;28;20709;-88
2022/10/25 02:00:11;;;;;;;7.67;4.17;;;14.00;99.90;;;;;;4987567;28;20270;-90
2022/10/25 02:03:07;;;;;;;7.47;4.07;;;14.00;99.90;;;;;;4980743;28;20230;-87
2022/10/25 02:05:55;;;;;;;6.50;3.63;;;14.10;99.90;;;;;;4987445;28;20310;-86
2022/10/25 02:08:27;;;;;;;10.23;5.27;;;14.00;99.90;;;;;;4987998;28;20719;-88
2022/10/25 02:11:03;;;;;;;4.23;3.40;;;14.10;99.90;;;;;;4997107;28;20212;-89
2022/10/25 02:14:01;;;;;;;6.97;4.10;;;14.10;99.90;;;;;;4975337;28;20306;-88
2022/10/25 02:16:31;;;;;;;11.33;4.17;;;14.10;99.90;;;;;;4991477;28;20239;-89
2022/10/25 02:19:02;;;;;;;13.07;3.30;;;14.10;99.90;;;;;;4997810;28;20193;-91
2022/10/25 02:21:31;;;;;;;7.03;3.77;;;14.00;99.90;;;;;;4968169;28;20240;-90
2022/10/25 02:24:00;;;;;;;5.60;3.83;;;14.00;99.90;;;;;;4980541;28;20225;-90
2022/10/25 02:26:26;;;;;;;6.70;3.93;;;14.00;99.90;;;;;;4978352;28;20236;-91
2022/10/25 02:28:53;;;;;;;5.03;2.50;;;14.00;99.90;;;;;;4980208;28;20221;-88
2022/10/25 02:31:21;;;;;;;8.03;3.10;;;14.00;99.90;;;;;;4971347;28;20195;-90
2022/10/25 02:33:47;;;;;;;6.57;3.27;;;14.00;99.90;;;;;;5000048;28;20283;-91
2022/10/25 02:36:14;;;;;;;22.20;3.13;;;14.00;99.90;;;;;;5012319;28;20238;-91
2022/10/25 02:38:42;;;;;;;12.27;3.53;;;14.00;99.90;;;;;;4990026;28;20334;-90
2022/10/25 02:41:09;;;;;;;9.43;2.97;;;13.90;99.90;;;;;;4986944;28;20263;-91
2022/10/25 02:43:35;;;;;;;3.30;1.90;;;14.00;99.90;;;;;;4998609;28;20244;-89
2022/10/25 02:46:09;;;;;;;4.37;2.93;;;14.00;99.90;;;;;;4951874;28;20651;-88
2022/10/25 02:48:35;;;;;;;5.37;2.80;;;13.90;99.90;;;;;;4994644;28;20345;-90
2022/10/25 02:51:01;;;;;;;6.67;2.80;;;13.90;99.90;;;;;;4988559;28;20228;-90
2022/10/25 02:53:27;;;;;;;6.17;3.17;;;13.90;99.90;;;;;;4943288;28;20232;-89
2022/10/25 02:56:05;;;;;;;26.70;3.80;;;13.90;99.90;;;;;;4961865;28;20354;-90
2022/10/25 02:58:33;;;;;;;5.30;2.43;;;14.00;99.90;;;;;;4994751;28;20231;-88
2022/10/25 03:00:59;;;;;;;5.10;3.90;;;14.00;99.90;;;;;;4988466;28;20422;-91
2022/10/25 03:03:26;;;;;;;6.23;3.00;;;13.90;99.90;;;;;;4970203;28;20658;-89
2022/10/25 03:05:53;;;;;;;10.77;3.77;;;14.00;99.90;;;;;;4987823;28;20223;-91
2022/10/25 03:08:19;;;;;;;5.37;3.03;;;14.00;99.90;;;;;;4983323;28;20226;-90
2022/10/25 03:10:45;;;;;;;17.67;3.87;;;13.90;99.90;;;;;;4996496;28;20227;-92
2022/10/25 03:13:11;;;;;;;10.33;3.53;;;13.90;99.90;;;;;;4979487;28;20192;-91
2022/10/25 03:15:36;;;;;;;8.83;4.93;;;13.90;99.90;;;;;;5013384;28;20617;-88
2022/10/25 03:18:02;;;;;;;7.47;3.20;;;13.90;99.90;;;;;;4961060;28;20684;-92
2022/10/25 03:20:28;;;;;;;7.53;3.47;;;13.80;99.90;;;;;;4978350;28;20938;-88
2022/10/25 03:22:54;;;;;;;10.17;3.97;;;13.80;99.90;;;;;;4959955;28;20226;-89
2022/10/25 03:25:19;;;;;;;7.53;3.93;;;13.80;99.90;;;;;;4962378;28;20203;-88
2022/10/25 03:27:45;;;;;;;16.47;4.57;;;13.70;99.90;;;;;;4986451;28;20236;-88
2022/10/25 03:30:13;;;;;;;10.00;4.70;;;13.70;99.90;;;;;;4953031;28;20232;-91
2022/10/25 03:32:39;;;;;;;14.73;4.23;;;13.70;99.90;;;;;;4980577;28;20342;-90
2022/10/25 03:35:05;;;;;;;5.23;3.03;;;13.70;99.90;;;;;;4987527;28;20581;-86
2022/10/25 03:37:31;;;;;;;6.70;4.13;;;13.70;99.90;;;;;;4982569;28;20229;-90
2022/10/25 03:39:57;;;;;;;3.63;2.60;;;13.60;99.90;;;;;;4968048;28;20192;-92
2022/10/25 03:42:23;;;;;;;10.33;4.17;;;13.60;99.90;;;;;;4963808;28;20234;-90
2022/10/25 03:44:48;;;;;;;11.03;3.40;;;13.60;99.90;;;;;;4995714;28;20251;-88
2022/10/25 03:47:14;;;;;;;15.13;4.07;;;13.60;99.90;;;;;;4993415;28;20232;-88
2022/10/25 03:49:40;;;;;;;11.57;3.77;;;13.50;99.90;;;;;;4981004;28;20280;-91
2022/10/25 03:52:06;;;;;;;7.60;2.00;;;13.50;99.90;;;;;;4950959;28;20647;-91
2022/10/25 03:54:32;;;;;;;4.43;1.93;;;13.50;99.90;;;;;;4986114;28;20191;-89
2022/10/25 03:56:58;;;;;;;3.17;2.57;;;13.50;99.90;;;;;;4986189;28;20334;-91
2022/10/25 03:59:24;;;;;;;9.33;2.00;;;13.60;99.90;;;;;;4990813;28;20764;-88
2022/10/25 04:01:50;;;;;;;9.00;1.60;;;13.60;99.90;;;;;;4991356;28;20307;-89
2022/10/25 04:04:16;;;;;;;11.23;2.47;;;13.70;99.90;;;;;;4969540;28;20192;-87
2022/10/25 04:06:41;;;;;;;6.87;1.50;;;13.70;99.90;;;;;;4986042;28;20216;-89
2022/10/25 04:09:07;;;;;;;11.73;2.03;;;13.70;99.90;;;;;;4968094;28;20221;-89
2022/10/25 04:11:33;;;;;;;1.00;0.67;;;13.70;99.90;;;;;;4987225;28;20334;-89
2022/10/25 04:13:59;;;;;;;5.20;1.73;;;13.80;99.90;;;;;;5012356;28;20661;-91
2022/10/25 04:16:25;;;;;;;5.10;1.07;;;13.70;99.90;;;;;;4999628;28;20231;-90
2022/10/25 04:18:54;;;;;;;7.63;2.80;;;13.70;99.90;;;;;;5017195;28;20195;-89
2022/10/25 04:21:20;;;;;;;1.30;1.20;;;13.70;99.90;;;;;;4984540;28;20636;-89
2022/10/25 04:23:46;;;;;;;4.53;1.90;;;13.70;99.90;;;;;;4998317;28;20227;-89
2022/10/25 04:26:19;;;;;;;1.77;0.77;;;13.70;99.90;;;;;;4999741;28;20313;-88
2022/10/25 04:28:53;;;;;;;3.67;0.90;;;13.70;99.90;;;;;;5000496;28;20218;-88
2022/10/25 04:31:19;;;;;;;8.43;2.07;;;13.60;99.90;;;;;;5014674;28;21160;-87
2022/10/25 04:33:53;;;;;;;0.97;0.70;;;13.60;99.90;;;;;;4999788;28;20279;-88
2022/10/25 04:36:19;;;;;;;1.60;0.83;;;13.60;99.90;;;;;;4989078;28;20285;-88
2022/10/25 04:38:50;;;;;;;1.93;1.20;;;13.60;99.90;;;;;;4989628;28;20223;-88
2022/10/25 04:41:16;;;;;;;3.70;1.00;;;13.60;99.90;;;;;;4993065;28;20228;-87
2022/10/25 04:43:42;;;;;;;2.37;1.10;;;13.60;99.90;;;;;;4997983;28;20223;-87
2022/10/25 04:46:08;;;;;;;4.10;1.47;;;13.60;99.90;;;;;;4998794;28;20207;-87
2022/10/25 04:48:36;;;;;;;2.40;0.73;;;13.60;99.90;;;;;;4984454;28;20228;-89
2022/10/25 04:51:02;;;;;;;7.40;1.47;;;13.60;99.90;;;;;;4987583;28;20227;-86
2022/10/25 04:53:28;;;;;;;4.17;1.50;;;13.60;99.90;;;;;;4952716;28;20328;-85
2022/10/25 04:55:58;;;;;;;4.47;2.07;;;13.70;99.90;;;;;;4952587;28;20216;-88
2022/10/25 04:58:25;;;;;;;9.17;0.97;;;13.70;99.90;;;;;;4987195;28;20369;-90
2022/10/25 05:00:52;;;;;;;4.00;1.83;;;13.70;99.90;;;;;;4988538;28;20202;-89
2022/10/25 05:03:18;;;;;;;5.30;1.00;;;13.60;99.90;;;;;;4983905;28;20339;-88
2022/10/25 05:05:44;;;;;;;2.40;0.93;;;13.60;99.90;;;;;;4985434;28;20220;-87
2022/10/25 05:08:09;;;;;;;7.70;2.00;;;13.60;99.90;;;;;;4978467;28;20242;-89
2022/10/25 05:10:35;;;;;;;2.07;0.90;;;13.50;99.90;;;;;;4974889;28;20220;-89
2022/10/25 05:13:01;;;;;;;4.13;0.80;;;13.40;99.90;;;;;;4966908;28;20207;-89
2022/10/25 05:15:27;;;;;;;3.97;1.30;;;13.40;99.90;;;;;;4950459;28;20220;-91
2022/10/25 05:18:00;;;;;;;0.97;0.67;;;13.40;99.90;;;;;;4965705;28;20240;-88
2022/10/25 05:20:26;;;;;;;5.63;1.77;;;13.30;99.90;;;;;;4963732;28;20314;-85
2022/10/25 05:22:52;;;;;;;8.77;1.70;;;13.40;99.90;;;;;;4991469;28;20224;-89
2022/10/25 05:25:18;;;;;;;9.80;1.37;;;13.40;99.90;;;;;;4986356;28;20191;-89
2022/10/25 05:27:44;;;;;;;6.43;1.83;;;13.40;99.90;;;;;;4985057;28;20254;-88
2022/10/25 05:30:11;;;;;;;5.07;1.30;;;13.40;99.90;;;;;;4985092;28;20338;-89
2022/10/25 05:32:36;;;;;;;2.30;1.37;;;13.40;99.90;;;;;;4972346;28;20242;-91
2022/10/25 05:35:03;;;;;;;1.80;1.27;;;13.40;99.90;;;;;;4981985;28;20750;-88
2022/10/25 05:37:30;;;;;;;2.07;1.53;;;13.40;99.90;;;;;;4986843;28;20227;-88
2022/10/25 05:39:55;;;;;;;3.53;1.83;;;13.40;99.90;;;;;;4993750;28;20255;-87
2022/10/25 05:42:21;;;;;;;7.70;1.10;;;13.40;99.90;;;;;;4993242;28;20231;-90
2022/10/25 05:44:47;;;;;;;9.77;1.83;;;13.40;99.90;;;;;;4974112;28;20321;-90
2022/10/25 05:47:13;;;;;;;4.03;2.10;;;13.40;99.90;;;;;;4965432;28;20579;-92
2022/10/25 05:49:41;;;;;;;22.37;3.50;;;13.40;99.90;;;;;;4989625;28;20261;-89
2022/10/25 05:52:06;;;;;;;2.67;1.30;;;13.30;99.90;;;;;;4995754;28;20195;-87
2022/10/25 05:54:32;;;;;;;8.60;1.97;;;13.30;99.90;;;;;;5010489;28;20192;-89
2022/10/25 05:56:58;;;;;;;4.60;1.77;;;13.30;99.90;;;;;;4986768;28;20322;-89
2022/10/25 05:59:24;;;;;;;6.83;1.93;;;13.40;99.90;;;;;;4941796;28;20951;-89
2022/10/25 06:01:50;;;;;;;9.63;1.57;;;13.30;99.90;;;;;;4991501;28;20223;-90
2022/10/25 06:04:16;;;;;;;4.40;2.43;;;13.30;99.90;;;;;;4994281;28;20191;-87
2022/10/25 06:06:44;;;;;;;1.07;1.03;;;13.20;99.90;;;;;;4985628;28;20240;-89
2022/10/25 06:09:11;;;;;;;4.43;1.70;;;13.20;99.90;;;;;;4965382;28;20260;-89
2022/10/25 06:11:37;;;;;;;6.57;1.67;;;13.20;99.90;;;;;;4965032;28;20220;-92
2022/10/25 06:14:04;;;;;;;9.83;1.20;;;13.20;99.90;;;;;;4964238;28;20230;-89
2022/10/25 06:16:30;;;;;;;1.13;1.00;;;13.10;99.90;;;;;;4953725;28;20379;-87
2022/10/25 06:18:56;;;;;;;6.70;2.17;;;13.20;99.90;;;;;;4976734;28;20204;-88
2022/10/25 06:21:24;;;;;;;6.00;2.27;;;13.10;99.90;;;;;;4949563;28;20661;-86
2022/10/25 06:23:51;;;;;;;2.77;1.17;;;13.10;99.90;;;;;;4964906;28;20252;-91
2022/10/25 06:26:20;;;;;;;1.63;1.53;;;13.10;99.90;;;;;;4975722;28;20236;-92
2022/10/25 06:28:46;;;;;;;9.30;1.27;;;13.10;99.90;;;;;;4982835;28;20330;-88
2022/10/25 06:31:15;;;;;;;2.37;1.60;;;13.10;99.90;;;;;;4985250;28;20196;-89
2022/10/25 06:33:42;;;;;;;4.07;1.37;;;13.10;99.90;;;;;;5000297;28;20188;-87
2022/10/25 06:36:16;;;;;;;4.83;1.43;;;13.10;99.90;;;;;;4967170;28;20205;-89
2022/10/25 06:38:46;;;;;;;5.50;1.77;;;13.20;99.90;;;;;;4978212;28;20700;-86
2022/10/25 06:41:14;;;;;;;9.77;1.30;;;13.20;99.90;;;;;;4991831;28;20279;-88
2022/10/25 06:43:40;;;;;;;3.60;1.00;;;13.30;99.90;;;;;;4975301;28;20218;-87
2022/10/25 06:46:07;;;;;;;10.57;1.80;;;13.30;99.90;;;;;;4997150;28;20211;-91
2022/10/25 06:48:33;;;;;;;7.43;1.77;;;13.30;99.90;;;;;;4987624;28;20252;-90
2022/10/25 06:51:04;;;;;;;12.83;1.33;;;13.40;99.90;;;;;;4970595;28;20251;-92
2022/10/25 06:53:30;;;;;;;12.90;1.73;;;13.40;99.90;;;;;;4984869;28;20215;-88
2022/10/25 06:56:00;;;;;;;10.27;2.30;;;13.40;99.90;;;;;;4998205;28;20310;-87
2022/10/25 06:58:28;;;;;;;1.63;1.47;;;13.50;99.90;;;;;;4991691;28;20965;-90
2022/10/25 07:00:54;;;;;;;4.43;1.93;;;13.80;99.90;;;;;;4968237;28;20539;-88
2022/10/25 07:03:28;;;;;;;8.50;2.13;;;14.20;99.90;;;;;;4979041;28;20678;-92
2022/10/25 07:05:57;;;;;;;3.53;1.30;;;14.40;99.90;;;;;;4986837;28;20290;-94
2022/10/25 07:08:22;;;;;;;5.77;2.33;;;14.40;99.90;;;;;;4991662;28;20212;-91
2022/10/25 07:10:53;;;;;;;5.80;2.87;;;14.40;99.90;;;;;;4988627;28;20708;-90
2022/10/25 07:13:18;;;;;;;6.13;2.83;;;14.40;99.90;;;;;;4990647;28;20528;-91
2022/10/25 07:15:44;;;;;;;1.97;1.73;;;14.60;99.90;;;;;;4972557;28;20235;-90
2022/10/25 07:18:10;;;;;;;5.37;2.27;;;15.30;99.90;;;;;;4955104;28;20220;-89
2022/10/25 07:20:36;;;;;;;3.37;1.87;;;15.70;99.90;;;;;;4972351;28;20282;-89
2022/10/25 07:23:01;;;;;;;2.03;1.40;;;15.50;99.90;;;;;;4992437;28;20226;-89
2022/10/25 07:25:27;;;;;;;4.47;2.30;;;15.20;99.90;;;;;;4982510;28;20666;-88
2022/10/25 07:27:53;;;;;;;4.37;2.07;;;15.00;99.90;;;;;;4970849;28;20216;-86
2022/10/25 07:30:18;;;;;;;13.30;3.27;;;14.80;99.90;;;;;;4960961;28;20212;-85
2022/10/25 07:32:44;;;;;;;8.17;2.53;;;15.10;99.90;;;;;;4981445;28;20693;-89
2022/10/25 07:35:10;;;;;;;6.90;1.80;;;15.20;99.90;;;;;;4965757;28;20224;-92
2022/10/25 07:37:35;;;;;;;3.20;1.63;;;15.20;99.90;;;;;;4949818;28;20224;-88
2022/10/25 07:40:01;;;;;;;2.40;1.70;;;15.20;99.90;;;;;;4950395;28;20185;-90
2022/10/25 07:42:27;;;;;;;1.73;1.40;;;15.10;99.90;;;;;;4994843;28;20331;-88
2022/10/25 07:44:53;;;;;;;6.93;1.47;;;15.30;99.90;;;;;;4989081;28;20669;-94
2022/10/25 07:47:18;;;;;;;7.03;2.07;;;15.40;99.90;;;;;;4959124;28;20574;-91
2022/10/25 07:49:44;;;;;;;7.20;2.53;;;15.70;99.90;;;;;;4949786;28;20240;-90
2022/10/25 07:52:10;;;;;;;4.07;1.93;;;16.80;99.90;;;;;;4967409;28;20323;-92
2022/10/25 07:54:36;;;;;;;5.97;2.07;;;16.60;99.90;;;;;;4987160;28;20199;-92
2022/10/25 07:57:01;;;;;;;4.60;1.73;;;16.70;99.90;;;;;;4952440;28;21127;-89
2022/10/25 07:59:27;;;;;;;8.50;3.10;;;16.70;99.90;;;;;;4983442;28;20263;-93
2022/10/25 08:01:53;;;;;;;5.47;2.50;;;17.80;99.90;;;;;;4968210;28;20220;-90
2022/10/25 08:04:19;;;;;;;5.63;1.60;;;19.00;99.90;;;;;;4953504;28;20193;-93
2022/10/25 08:06:44;;;;;;;6.13;2.40;;;20.10;99.90;;;;;;5010711;28;20224;-88
2022/10/25 08:09:10;;;;;;;5.53;1.73;;;20.90;99.90;;;;;;4968681;28;20224;-92
2022/10/25 08:11:36;;;;;;;2.90;1.80;;;20.70;99.90;;;;;;4965212;28;20757;-87
2022/10/25 08:14:01;;;;;;;5.93;2.33;;;20.40;99.90;;;;;;4963564;28;20216;-93
2022/10/25 08:16:27;;;;;;;2.00;1.40;;;20.00;99.90;;;;;;4947958;28;20538;-88
2022/10/25 08:18:53;;;;;;;3.03;2.53;;;20.20;99.90;;;;;;4934273;28;20280;-90
2022/10/25 08:21:18;;;;;;;11.13;2.63;;;19.90;99.90;;;;;;4965081;28;20251;-88
2022/10/25 08:23:44;;;;;;;4.53;1.77;;;19.10;99.90;;;;;;4949324;28;20764;-89
2022/10/25 08:26:10;;;;;;;4.67;2.57;;;18.40;99.90;;;;;;4963250;28;20251;-90
2022/10/25 08:28:35;;;;;;;4.47;2.00;;;17.90;99.90;;;;;;4974317;28;20670;-89
2022/10/25 08:31:03;;;;;;;12.07;2.13;;;17.70;99.90;;;;;;4968799;28;20200;-91
2022/10/25 08:33:29;;;;;;;4.43;2.30;;;17.40;99.90;;;;;;5001944;28;20311;-89
2022/10/25 08:35:55;;;;;;;3.80;1.93;;;17.10;99.90;;;;;;4986285;28;20230;-88
2022/10/25 08:38:20;;;;;;;6.77;2.27;;;17.10;99.90;;;;;;4990984;28;20307;-86
2022/10/25 08:41:05;;;;;;;2.77;1.83;;;16.90;99.90;;;;;;4981273;28;20314;-94
2022/10/25 08:43:41;;;;;;;6.53;2.17;;;16.90;99.90;;;;;;4995626;28;20221;-88
2022/10/25 08:46:21;;;;;;;4.53;1.40;;;16.80;99.90;;;;;;4994090;28;20191;-89
2022/10/25 08:49:12;;;;;;;5.27;2.77;;;16.80;99.90;;;;;;4985122;28;20207;-92
2022/10/25 08:51:42;;;;;;;11.20;2.83;;;16.90;99.90;;;;;;4966037;28;20227;-91
2022/10/25 08:54:25;;;;;;;8.13;1.87;;;16.70;99.90;;;;;;4981500;28;20216;-92
2022/10/25 08:56:59;;;;;;;1.70;1.23;;;16.50;99.90;;;;;;4996878;28;20609;-89
2022/10/25 08:59:33;;;;;;;6.03;2.37;;;16.50;99.90;;;;;;4986024;28;20251;-90
2022/10/25 09:01:59;;;;;;;3.37;1.47;;;16.60;99.90;;;;;;4999369;28;20210;-91
2022/10/25 09:04:25;;;;;;;7.23;2.03;;;16.40;99.90;;;;;;5008204;28;20592;-92
2022/10/25 09:07:17;;;;;;;3.60;1.80;;;16.50;99.90;;;;;;4983410;28;20315;-92
2022/10/25 09:10:10;;;;;;;6.90;1.77;;;16.70;99.90;;;;;;4990198;28;20227;-92
2022/10/25 09:12:50;;;;;;;4.10;2.00;;;17.30;99.90;;;;;;5008898;28;20275;-94
2022/10/25 09:15:49;;;;;;;3.23;1.60;;;17.50;99.90;;;;;;4989365;28;20224;-94
2022/10/25 09:18:16;;;;;;;5.00;2.90;;;17.50;99.90;;;;;;4978593;28;20232;-93
2022/10/25 09:20:51;;;;;;;6.10;1.53;;;17.40;99.90;;;;;;4985969;28;20669;-90
2022/10/25 09:23:31;;;;;;;12.83;2.27;;;17.10;99.90;;;;;;4990624;28;20219;-91
2022/10/25 09:26:16;;;;;;;2.07;1.17;;;17.00;99.90;;;;;;4994052;28;20222;-95
2022/10/25 09:29:01;;;;;;;3.07;1.13;;;17.00;99.90;;;;;;5015307;28;20223;-94
2022/10/25 09:31:32;;;;;;;3.27;0.93;;;17.00;99.90;;;;;;5002710;28;20219;-94
2022/10/25 09:34:04;;;;;;;7.43;2.70;;;17.10;99.90;;;;;;4998025;28;20214;-93
2022/10/25 09:36:35;;;;;;;7.60;1.10;;;17.10;99.90;;;;;;5013664;28;20220;-90
2022/10/25 09:39:14;;;;;;;6.60;1.20;;;17.10;99.90;;;;;;4990362;28;20292;-89
2022/10/25 09:41:45;;;;;;;2.70;1.63;;;16.90;99.90;;;;;;4989777;28;20223;-90
2022/10/25 09:44:44;;;;;;;2.07;1.00;;;16.80;99.90;;;;;;4993998;28;20329;-91
2022/10/25 09:47:28;;;;;;;2.80;0.77;;;16.80;99.90;;;;;;5015001;28;21127;-92
2022/10/25 09:50:04;;;;;;;5.70;1.90;;;16.80;99.90;;;;;;4996713;28;20311;-91
2022/10/25 09:52:39;;;;;;;4.03;1.90;;;16.80;99.90;;;;;;4998705;28;20279;-93
2022/10/25 09:55:18;;;;;;;8.13;2.17;;;16.80;99.90;;;;;;4991595;28;20219;-92
2022/10/25 09:57:45;;;;;;;5.60;1.23;;;16.70;99.90;;;;;;4992577;28;20231;-94
2022/10/25 10:00:14;;;;;;;5.57;1.20;;;16.80;99.90;;;;;;4957046;28;20236;-87
2022/10/25 10:02:40;;;;;;;4.97;0.87;;;16.80;99.90;;;;;;4989834;28;21121;-92
2022/10/25 10:05:17;;;;;;;3.80;0.80;;;16.80;99.90;;;;;;5016450;28;20262;-91
2022/10/25 10:07:45;;;;;;;6.70;0.93;;;16.70;99.90;;;;;;4993429;28;20236;-90
2022/10/25 10:10:18;;;;;;;3.93;1.07;;;16.80;99.90;;;;;;4982155;28;20193;-89
2022/10/25 10:13:09;;;;;;;6.00;1.00;;;16.70;99.90;;;;;;5030373;28;20172;-88
2022/10/25 10:15:58;;;;;;;2.63;1.17;;;16.70;99.90;;;;;;5013299;28;20216;-91
2022/10/25 10:18:30;;;;;;;1.40;1.03;;;16.80;99.90;;;;;;4988666;28;20238;-91
2022/10/25 10:21:14;;;;;;;4.80;0.60;;;16.80;99.90;;;;;;4988188;28;20220;-91
2022/10/25 10:23:49;;;;;;;1.90;1.07;;;16.80;99.90;;;;;;4977952;28;20232;-88
2022/10/25 10:26:35;;;;;;;0.90;0.80;;;16.80;99.90;;;;;;4982909;28;20215;-91
2022/10/25 10:29:07;;;;;;;4.43;1.83;;;16.80;99.90;;;;;;4998517;28;20250;-87
2022/10/25 10:31:40;;;;;;;3.50;1.07;;;16.70;99.90;;;;;;5014154;28;20226;-88
2022/10/25 10:34:28;;;;;;;6.00;0.87;;;16.80;99.90;;;;;;5014744;28;20271;-88
2022/10/25 10:37:17;;;;;;;3.60;1.03;;;17.00;99.90;;;;;;5014062;28;20195;-89
2022/10/25 10:40:06;;;;;;;3.90;0.93;;;17.30;99.90;;;;;;4996871;28;20230;-93
2022/10/25 10:42:34;;;;;;;3.57;0.60;;;17.40;99.90;;;;;;5003027;28;20314;-88
2022/10/25 10:45:02;;;;;;;4.10;0.87;;;17.30;99.90;;;;;;4994806;28;20569;-87
2022/10/25 10:47:36;;;;;;;2.00;0.90;;;17.20;99.90;;;;;;4992438;28;20297;-86
2022/10/25 10:50:19;;;;;;;3.40;0.97;;;16.90;99.90;;;;;;4988752;28;20246;-90
2022/10/25 10:52:46;;;;;;;5.67;3.33;;;16.90;99.90;;;;;;4990731;28;20227;-90
2022/10/25 10:55:23;;;;;;;15.30;1.70;;;17.20;99.90;;;;;;4995283;28;20194;-91
2022/10/25 10:57:51;;;;;;;8.47;2.17;;;18.10;99.90;;;;;;4987870;28;20319;-87
2022/10/25 11:00:23;;;;;;;2.63;0.70;;;18.80;99.90;;;;;;4969184;28;20346;-93
2022/10/25 11:02:48;;;;;;;4.67;1.60;;;19.10;99.90;;;;;;4982220;28;20760;-90
2022/10/25 11:05:25;;;;;;;3.23;0.90;;;18.30;99.90;;;;;;4975281;28;20228;-90
2022/10/25 11:07:59;;;;;;;1.60;0.77;;;17.80;99.90;;;;;;4998531;28;20242;-90
2022/10/25 11:10:32;;;;;;;6.47;1.17;;;17.70;99.90;;;;;;4997067;28;20223;-91
2022/10/25 11:13:10;;;;;;;5.27;1.43;;;17.60;99.90;;;;;;4996949;28;20253;-91
2022/10/25 11:15:41;;;;;;;5.60;1.80;;;17.70;99.90;;;;;;4987263;28;21054;-94
2022/10/25 11:18:08;;;;;;;1.53;0.87;;;17.70;99.90;;;;;;5012013;28;20244;-91
2022/10/25 11:20:45;;;;;;;3.40;0.93;;;17.60;99.90;;;;;;4997515;28;20223;-92
2022/10/25 11:24:00;;;;;;;4.80;1.30;;;18.20;99.90;;;;;;4997574;28;20351;-89
2022/10/25 11:26:48;;;;;;;4.07;1.13;;;18.20;99.90;;;;;;4973882;28;20254;-91
2022/10/25 11:29:42;;;;;;;3.07;1.03;;;18.00;99.90;;;;;;4989637;28;20223;-93
2022/10/25 11:32:42;;;;;;;2.47;0.97;;;17.60;99.90;;;;;;4986849;28;20335;-89
2022/10/25 11:35:30;;;;;;;3.00;0.87;;;17.40;99.90;;;;;;4986553;28;20358;-91
2022/10/25 11:38:09;;;;;;;2.77;1.50;;;17.20;99.90;;;;;;4995665;28;20228;-88
2022/10/25 11:40:40;;;;;;;5.17;1.63;;;17.10;99.90;;;;;;4974959;28;20245;-91
2022/10/25 11:43:14;;;;;;;2.63;1.33;;;17.10;99.90;;;;;;4995507;28;20168;-91
2022/10/25 11:45:45;;;;;;;7.37;1.33;;;17.10;99.90;;;;;;4991012;28;20215;-92
2022/10/25 11:48:14;;;;;;;2.30;1.10;;;17.00;99.90;;;;;;4999585;28;20326;-91
2022/10/25 11:50:40;;;;;;;6.83;1.13;;;17.10;99.90;;;;;;5014466;28;20236;-91
2022/10/25 11:53:24;;;;;;;3.17;1.03;;;17.20;99.90;;;;;;5016392;28;20279;-91
2022/10/25 11:56:06;;;;;;;1.53;0.87;;;17.80;99.90;;;;;;5015128;28;20266;-94
2022/10/25 11:58:51;;;;;;;4.73;0.83;;;18.20;99.90;;;;;;5006359;28;20294;-93
2022/10/25 12:01:30;;;;;;;2.93;0.63;;;18.50;99.90;;;;;;4992885;28;20256;-92
2022/10/25 12:04:14;;;;;;;2.13;1.07;;;18.40;99.90;;;;;;4987336;28;20183;-89
2022/10/25 12:06:49;;;;;;;7.30;0.80;;;18.00;99.90;;;;;;4987996;28;20229;-93
2022/10/25 12:09:30;;;;;;;1.50;1.07;;;17.70;99.90;;;;;;4994717;28;20587;-93
2022/10/25 12:12:03;;;;;;;3.57;0.53;;;17.40;99.90;;;;;;4992897;28;20231;-90
2022/10/25 12:14:40;;;;;;;4.73;1.10;;;17.40;99.90;;;;;;4984592;28;20223;-91
2022/10/25 12:17:20;;;;;;;1.80;0.53;;;17.30;99.90;;;;;;4988031;28;21097;-91
2022/10/25 12:19:48;;;;;;;4.60;0.90;;;17.10;99.90;;;;;;4991030;28;20211;-92
2022/10/25 12:22:25;;;;;;;2.77;0.97;;;17.10;99.90;;;;;;4986031;28;20192;-94
2022/10/25 12:25:14;;;;;;;4.10;1.87;;;17.10;99.90;;;;;;4990352;28;20211;-92
2022/10/25 12:27:43;;;;;;;0.63;0.63;;;17.30;99.90;;;;;;5007234;28;20351;-87
2022/10/25 12:30:18;;;;;;;2.40;0.83;;;17.30;99.90;;;;;;4995484;28;20221;-93
2022/10/25 12:32:51;;;;;;;1.30;0.90;;;17.40;99.90;;;;;;4951642;28;20223;-89
2022/10/25 12:35:26;;;;;;;1.50;0.77;;;17.60;99.90;;;;;;4977290;28;20724;-93
2022/10/25 12:37:55;;;;;;;2.43;0.50;;;17.80;99.90;;;;;;4993952;28;20246;-90
2022/10/25 12:40:24;;;;;;;8.13;1.07;;;17.80;99.90;;;;;;4996076;28;20309;-92
2022/10/25 12:43:16;;;;;;;7.33;1.23;;;17.80;99.90;;;;;;5009034;28;20196;-93
2022/10/25 12:45:53;;;;;;;1.07;0.40;;;17.80;99.90;;;;;;5007426;28;20239;-93
2022/10/25 12:48:38;;;;;;;9.17;1.47;;;17.60;99.90;;;;;;5000400;28;20231;-93
2022/10/25 12:51:15;;;;;;;2.60;1.13;;;17.70;99.90;;;;;;5015743;28;20339;-88
2022/10/25 12:54:03;;;;;;;1.40;0.80;;;17.80;99.90;;;;;;4997684;28;20277;-91
2022/10/25 12:56:41;;;;;;;1.50;0.70;;;17.90;99.90;;;;;;4988444;28;20271;-87
2022/10/25 12:59:25;;;;;;;2.90;0.63;;;17.90;99.90;;;;;;5014270;28;21014;-87
2022/10/25 13:02:22;;;;;;;19.33;1.70;;;18.10;99.90;;;;;;4992716;28;20305;-88
2022/10/25 13:05:21;;;;;;;2.30;0.60;;;18.20;99.90;;;;;;4977985;28;20767;-92
2022/10/25 13:07:49;;;;;;;3.93;0.60;;;18.30;99.90;;;;;;4999373;28;20239;-90